METAR Data
IDs: Format: Raw Decoded Include TAF

Data at: 1413 UTC 27 Nov 2021

EHRD 271355Z AUTO 22011KT 180V240 9999 DZ FEW008 BKN009 BKN012 03/02 Q0989 TEMPO 5000 RADZ BKN012